createdAt,value
2022-10-05T00:00:16.120Z,101502.75
2022-10-05T00:03:18.397Z,101500.56
2022-10-05T00:06:20.322Z,101506.19
2022-10-05T00:09:22.617Z,101506.56
2022-10-05T00:12:25.316Z,101508.25
2022-10-05T00:15:27.557Z,101505.88
2022-10-05T00:18:29.434Z,101509.69
2022-10-05T00:21:33.379Z,101503.47
2022-10-05T00:24:35.575Z,101509.00
2022-10-05T00:27:38.905Z,101499.78
2022-10-05T00:30:40.877Z,101503.75
2022-10-05T00:33:43.152Z,101495.25
2022-10-05T00:36:45.524Z,101496.84
2022-10-05T00:39:49.289Z,101503.91
2022-10-05T00:43:00.519Z,101484.66
2022-10-05T00:46:08.664Z,101482.03
2022-10-05T00:49:10.602Z,101495.22
2022-10-05T00:52:21.936Z,101492.91
2022-10-05T00:55:45.573Z,101490.34
2022-10-05T00:58:52.184Z,101482.34
2022-10-05T01:01:57.288Z,101490.78
2022-10-05T01:05:02.676Z,101495.84
2022-10-05T01:08:07.824Z,101497.84
2022-10-05T01:11:28.961Z,101498.78
2022-10-05T01:14:43.215Z,101496.84
2022-10-05T01:18:11.658Z,101511.47
2022-10-05T01:21:20.863Z,101515.84
2022-10-05T01:24:26.034Z,101525.13
2022-10-05T01:27:27.965Z,101531.25
2022-10-05T01:30:34.926Z,101522.03
2022-10-05T01:33:46.351Z,101527.19
2022-10-05T01:36:54.660Z,101537.81
2022-10-05T01:39:56.503Z,101536.84
2022-10-05T01:43:17.725Z,101539.97
2022-10-05T01:46:24.973Z,101537.38
2022-10-05T01:49:38.782Z,101528.87
2022-10-05T01:52:46.899Z,101530.72
2022-10-05T01:55:54.178Z,101529.28
2022-10-05T01:59:05.151Z,101520.50
2022-10-05T02:02:10.084Z,101529.88
2022-10-05T02:05:12.423Z,101545.84
2022-10-05T02:08:21.944Z,101538.91
2022-10-05T02:11:24.266Z,101546.75
2022-10-05T02:14:35.994Z,101542.97
2022-10-05T02:17:44.300Z,101551.31
2022-10-05T02:20:47.779Z,101555.75
2022-10-05T02:23:52.598Z,101551.25
2022-10-05T02:26:55.386Z,101545.87
2022-10-05T02:30:01.319Z,101555.03
2022-10-05T02:33:09.163Z,101553.38
2022-10-05T02:36:14.818Z,101545.72
2022-10-05T02:39:22.148Z,101562.91
2022-10-05T02:42:30.990Z,101555.34
2022-10-05T02:45:36.206Z,101556.44
2022-10-05T02:48:48.433Z,101556.50
2022-10-05T02:51:52.039Z,101567.06
2022-10-05T02:55:02.103Z,101563.88
2022-10-05T02:58:06.866Z,101562.59
2022-10-05T03:01:16.490Z,101575.53
2022-10-05T03:04:18.978Z,101574.34
2022-10-05T03:07:38.681Z,101569.97
2022-10-05T03:10:48.436Z,101568.78
2022-10-05T03:14:06.473Z,101560.94
2022-10-05T03:17:14.513Z,101564.72
2022-10-05T03:20:33.891Z,101559.03
2022-10-05T03:23:48.037Z,101549.72
2022-10-05T03:27:00.899Z,101541.31
2022-10-05T03:30:06.213Z,101542.84
2022-10-05T03:33:33.211Z,101539.00
2022-10-05T03:36:47.390Z,101543.78
2022-10-05T03:40:02.156Z,101543.59
2022-10-05T03:43:04.414Z,101544.75
2022-10-05T03:46:09.944Z,101550.69
2022-10-05T03:49:24.635Z,101554.56
2022-10-05T03:52:34.723Z,101558.16
2022-10-05T03:55:40.263Z,101567.59
2022-10-05T03:58:46.051Z,101562.06
2022-10-05T04:01:51.185Z,101564.59
2022-10-05T04:05:02.246Z,101575.53
2022-10-05T04:08:24.541Z,101571.34
2022-10-05T04:11:53.615Z,101572.13
2022-10-05T04:15:18.880Z,101560.75
2022-10-05T04:18:44.931Z,101567.78
2022-10-05T04:21:57.357Z,101573.59
2022-10-05T04:25:02.820Z,101572.78
2022-10-05T04:28:10.345Z,101572.69
2022-10-05T04:31:16.092Z,101575.25
2022-10-05T04:34:36.473Z,101580.75
2022-10-05T04:37:42.175Z,101577.34
2022-10-05T04:41:00.128Z,101577.84
2022-10-05T04:44:12.463Z,101581.63
2022-10-05T04:47:25.793Z,101584.66
2022-10-05T04:50:37.881Z,101577.34
2022-10-05T04:53:43.033Z,101581.63
2022-10-05T04:56:48.356Z,101579.47
2022-10-05T05:00:09.644Z,101594.31
2022-10-05T05:03:12.133Z,101580.78
2022-10-05T05:06:38.145Z,101569.94
2022-10-05T05:09:46.631Z,101565.91
2022-10-05T05:13:07.565Z,101575.87
2022-10-05T05:16:31.872Z,101574.47
2022-10-05T05:19:52.837Z,101567.16
2022-10-05T05:23:04.201Z,101566.97
2022-10-05T05:26:28.752Z,101574.94
2022-10-05T05:29:44.680Z,101580.50
2022-10-05T05:32:46.546Z,101582.63
2022-10-05T05:36:07.958Z,101581.12
2022-10-05T05:39:16.228Z,101585.19
2022-10-05T05:42:56.198Z,101587.03
2022-10-05T05:46:16.108Z,101591.59
2022-10-05T05:49:22.284Z,101599.34
2022-10-05T05:52:28.775Z,101605.03
2022-10-05T05:55:42.464Z,101612.19
2022-10-05T05:58:51.903Z,101617.13
2022-10-05T06:02:00.970Z,101620.03
2022-10-05T06:05:22.397Z,101630.50
2022-10-05T06:08:27.571Z,101624.19
2022-10-05T06:11:35.261Z,101628.59
2022-10-05T06:14:42.152Z,101641.75
2022-10-05T06:17:48.625Z,101650.59
2022-10-05T06:20:54.226Z,101659.06
2022-10-05T06:23:56.462Z,101664.88
2022-10-05T06:26:59.161Z,101667.81
2022-10-05T06:30:15.152Z,101685.38
2022-10-05T06:33:23.092Z,101683.84
2022-10-05T06:36:41.344Z,101681.19
2022-10-05T06:40:00.183Z,101675.50
2022-10-05T06:43:21.632Z,101683.28
2022-10-05T06:46:43.626Z,101685.56
2022-10-05T06:49:58.894Z,101687.47
2022-10-05T06:53:07.287Z,101681.88
2022-10-05T06:56:15.113Z,101691.28
2022-10-05T06:59:28.885Z,101697.19
2022-10-05T07:02:43.172Z,101699.47
2022-10-05T07:05:51.793Z,101704.63
2022-10-05T07:08:57.582Z,101710.75
2022-10-05T07:12:05.562Z,101719.56
2022-10-05T07:15:27.525Z,101715.75
2022-10-05T07:18:48.221Z,101721.25
2022-10-05T07:22:09.303Z,101719.62
2022-10-05T07:25:20.789Z,101709.47
2022-10-05T07:28:35.824Z,101697.69
2022-10-05T07:32:01.863Z,101703.50
2022-10-05T07:35:09.333Z,101712.81
2022-10-05T07:38:15.403Z,101723.59
2022-10-05T07:41:22.907Z,101723.91
2022-10-05T07:44:32.056Z,101725.34
2022-10-05T07:47:48.041Z,101710.72
2022-10-05T07:50:49.989Z,101707.50
2022-10-05T07:53:55.445Z,101706.47
2022-10-05T07:57:03.771Z,101711.09
2022-10-05T08:00:14.999Z,101704.56
2022-10-05T08:03:23.700Z,101719.09
2022-10-05T08:10:24.040Z,101727.56
2022-10-05T08:13:40.726Z,101726.25
2022-10-05T08:16:43.563Z,101720.53
2022-10-05T08:20:08.055Z,101713.84
2022-10-05T08:23:25.189Z,101702.88
2022-10-05T08:26:33.265Z,101697.50
2022-10-05T08:29:41.821Z,101695.69
2022-10-05T08:32:43.966Z,101686.44
2022-10-05T08:35:50.134Z,101686.44
2022-10-05T08:38:55.264Z,101691.88
2022-10-05T08:42:15.754Z,101691.28
2022-10-05T08:45:36.878Z,101705.03
2022-10-05T08:48:47.989Z,101678.09
2022-10-05T08:52:09.005Z,101682.25
2022-10-05T08:55:23.115Z,101674.94
2022-10-05T08:58:33.323Z,101683.41
2022-10-05T09:01:49.393Z,101683.34
2022-10-05T09:05:14.404Z,101676.03
2022-10-05T09:08:25.765Z,101686.75
2022-10-05T09:12:06.421Z,101695.69
2022-10-05T09:15:25.426Z,101697.38
2022-10-05T09:18:31.277Z,101700.94
2022-10-05T09:21:39.063Z,101710.19
2022-10-05T09:24:57.987Z,101708.50
2022-10-05T09:28:11.422Z,101709.81
2022-10-05T09:31:23.458Z,101711.91
2022-10-05T09:34:30.718Z,101702.59
2022-10-05T09:37:48.177Z,101698.13
2022-10-05T09:40:50.015Z,101703.28
2022-10-05T09:43:55.164Z,101706.69
2022-10-05T09:47:02.543Z,101716.88
2022-10-05T09:50:20.685Z,101704.72
2022-10-05T09:53:41.568Z,101702.38
2022-10-05T09:57:00.207Z,101697.53
2022-10-05T10:03:22.378Z,101693.31
2022-10-05T10:06:43.250Z,101686.84
2022-10-05T10:09:48.272Z,101691.22
2022-10-05T10:13:10.731Z,101698.78
2022-10-05T10:16:23.560Z,101690.47
2022-10-05T10:19:26.088Z,101692.47
2022-10-05T10:22:42.221Z,101684.84
2022-10-05T10:25:45.145Z,101690.19
2022-10-05T10:28:53.334Z,101688.66
2022-10-05T10:31:55.621Z,101691.72
2022-10-05T10:35:14.138Z,101696.88
2022-10-05T10:38:20.146Z,101690.94
2022-10-05T10:41:59.018Z,101695.75
2022-10-05T10:45:22.765Z,101692.41
2022-10-05T10:48:30.581Z,101689.09
2022-10-05T10:51:51.638Z,101698.41
2022-10-05T10:54:53.595Z,101695.72
2022-10-05T10:57:55.869Z,101698.16
2022-10-05T11:00:57.754Z,101684.09
2022-10-05T11:04:18.660Z,101692.16
2022-10-05T11:07:39.658Z,101695.59
2022-10-05T11:11:00.918Z,101697.87
2022-10-05T11:14:30.557Z,101687.94
2022-10-05T11:17:44.896Z,101685.50
2022-10-05T11:21:04.492Z,101685.00
2022-10-05T11:24:15.632Z,101683.38
2022-10-05T11:27:31.309Z,101673.84
2022-10-05T11:31:05.466Z,101666.28
2022-10-05T11:34:26.131Z,101668.47
2022-10-05T11:41:43.948Z,101662.75
2022-10-05T11:45:06.203Z,101654.97
2022-10-05T11:48:14.660Z,101654.37
2022-10-05T11:51:16.540Z,101654.37
2022-10-05T11:54:18.739Z,101654.19
2022-10-05T11:57:28.769Z,101647.16
2022-10-05T12:00:36.128Z,101641.38
2022-10-05T12:03:46.910Z,101637.59
2022-10-05T12:06:54.780Z,101627.50
2022-10-05T12:10:17.406Z,101626.56
2022-10-05T12:13:31.482Z,101623.47
2022-10-05T12:16:41.520Z,101617.25
2022-10-05T12:19:57.924Z,101619.16
2022-10-05T12:23:12.979Z,101625.66
2022-10-05T12:26:15.638Z,101615.06
2022-10-05T12:29:24.185Z,101617.38
2022-10-05T12:32:35.423Z,101617.44
2022-10-05T12:35:51.085Z,101620.34
2022-10-05T12:38:57.985Z,101610.75
2022-10-05T12:42:08.012Z,101611.16
2022-10-05T12:45:28.682Z,101595.06
2022-10-05T12:48:37.614Z,101599.87
2022-10-05T12:51:39.889Z,101592.75
2022-10-05T12:54:50.725Z,101578.72
2022-10-05T12:58:01.456Z,101580.00
2022-10-05T13:01:12.014Z,101584.00
2022-10-05T13:04:20.262Z,101576.16
2022-10-05T13:07:28.999Z,101585.50
2022-10-05T13:10:33.957Z,101587.00
2022-10-05T13:13:48.827Z,101582.25
2022-10-05T13:16:55.230Z,101587.03
2022-10-05T13:20:00.710Z,101583.38
2022-10-05T13:23:05.667Z,101581.59
2022-10-05T13:26:11.437Z,101583.22
2022-10-05T13:29:22.520Z,101577.06
2022-10-05T13:32:44.989Z,101568.03
2022-10-05T13:35:57.776Z,101565.00
2022-10-05T13:39:03.840Z,101573.06
2022-10-05T13:42:09.862Z,101576.28
2022-10-05T13:45:15.124Z,101569.88
2022-10-05T13:48:27.088Z,101571.41
2022-10-05T13:51:34.494Z,101565.91
2022-10-05T13:54:40.983Z,101559.97
2022-10-05T13:57:51.529Z,101556.31
2022-10-05T14:00:54.872Z,101562.41
2022-10-05T14:04:24.552Z,101561.88
2022-10-05T14:07:48.157Z,101561.75
2022-10-05T14:10:50.304Z,101563.75
2022-10-05T14:13:53.088Z,101568.72
2022-10-05T14:16:56.822Z,101568.31
2022-10-05T14:20:00.272Z,101570.19
2022-10-05T14:23:17.293Z,101571.31
2022-10-05T14:26:32.634Z,101569.75
2022-10-05T14:29:35.801Z,101564.09
2022-10-05T14:33:03.957Z,101565.91
2022-10-05T14:36:20.333Z,101565.50
2022-10-05T14:39:26.832Z,101560.66
2022-10-05T14:42:30.443Z,101570.78
2022-10-05T14:45:33.754Z,101570.94
2022-10-05T14:48:43.321Z,101566.28
2022-10-05T14:52:07.121Z,101571.22
2022-10-05T14:59:46.636Z,101564.12
2022-10-05T15:03:35.582Z,101565.50
2022-10-05T15:06:46.929Z,101549.09
2022-10-05T15:09:49.281Z,101555.56
2022-10-05T15:12:51.914Z,101552.50
2022-10-05T15:15:56.503Z,101539.25
2022-10-05T15:19:16.017Z,101536.72
2022-10-05T15:22:39.483Z,101540.75
2022-10-05T15:25:46.171Z,101536.09
2022-10-05T15:29:14.981Z,101540.50
2022-10-05T15:32:32.412Z,101552.56
2022-10-05T15:35:48.011Z,101547.75
2022-10-05T15:39:08.869Z,101532.66
2022-10-05T15:42:12.901Z,101517.59
2022-10-05T15:45:14.841Z,101527.00
2022-10-05T15:48:20.531Z,101535.31
2022-10-05T15:51:30.647Z,101533.38
2022-10-05T15:54:53.335Z,101523.78
2022-10-05T15:58:19.007Z,101532.03
2022-10-05T16:01:43.935Z,101535.06
2022-10-05T16:05:03.917Z,101530.53
2022-10-05T16:08:30.737Z,101533.44
2022-10-05T16:11:51.626Z,101534.38
2022-10-05T16:15:15.785Z,101535.06
2022-10-05T16:18:24.166Z,101544.19
2022-10-05T16:21:30.040Z,101543.22
2022-10-05T16:24:51.590Z,101538.66
2022-10-05T16:28:05.754Z,101539.97
2022-10-05T16:31:12.296Z,101544.16
2022-10-05T16:34:17.174Z,101549.06
2022-10-05T16:37:28.500Z,101550.94
2022-10-05T16:40:44.299Z,101559.37
2022-10-05T16:43:52.680Z,101555.50
2022-10-05T16:46:54.643Z,101564.47
2022-10-05T16:49:56.861Z,101564.63
2022-10-05T16:53:01.958Z,101561.31
2022-10-05T16:56:08.589Z,101559.31
2022-10-05T16:59:32.023Z,101559.88
2022-10-05T17:02:46.450Z,101564.75
2022-10-05T17:06:00.722Z,101579.19
2022-10-05T17:09:12.247Z,101586.34
2022-10-05T17:12:14.144Z,101586.78
2022-10-05T17:15:32.920Z,101589.34
2022-10-05T17:18:50.107Z,101600.84
2022-10-05T17:21:55.167Z,101590.81
2022-10-05T17:25:06.248Z,101594.56
2022-10-05T17:28:27.751Z,101592.31
2022-10-05T17:31:31.209Z,101590.19
2022-10-05T17:34:36.964Z,101594.69
2022-10-05T17:37:40.378Z,101600.97
2022-10-05T17:41:06.198Z,101594.34
2022-10-05T17:44:19.065Z,101602.53
2022-10-05T17:47:45.343Z,101596.47
2022-10-05T17:51:08.042Z,101597.53
2022-10-05T17:54:42.632Z,101604.13
2022-10-05T17:57:44.682Z,101604.25
2022-10-05T18:01:13.436Z,101609.69
2022-10-05T18:04:24.708Z,101603.41
2022-10-05T18:07:27.326Z,101597.09
2022-10-05T18:10:29.840Z,101598.69
2022-10-05T18:13:35.117Z,101594.72
2022-10-05T18:16:56.489Z,101593.41
2022-10-05T18:20:27.616Z,101597.97
2022-10-05T18:23:35.483Z,101592.25
2022-10-05T18:26:45.277Z,101602.75
2022-10-05T18:30:03.308Z,101597.62
2022-10-05T18:33:11.200Z,101600.56
2022-10-05T18:36:27.870Z,101606.75
2022-10-05T18:39:39.309Z,101613.03
2022-10-05T18:42:51.657Z,101608.19
2022-10-05T18:45:57.678Z,101610.00
2022-10-05T18:49:18.834Z,101601.59
2022-10-05T18:52:20.672Z,101597.53
2022-10-05T18:55:33.543Z,101593.69
2022-10-05T18:58:41.562Z,101601.50
2022-10-05T19:01:53.911Z,101595.44
2022-10-05T19:05:02.112Z,101602.94
2022-10-05T19:08:22.728Z,101598.09
2022-10-05T19:11:27.767Z,101597.72
2022-10-05T19:14:39.306Z,101601.50
2022-10-05T19:17:46.997Z,101602.19
2022-10-05T19:20:55.315Z,101598.09
2022-10-05T19:24:15.726Z,101604.28
2022-10-05T19:27:36.527Z,101601.06
2022-10-05T19:30:44.427Z,101609.31
2022-10-05T19:34:02.726Z,101617.50
2022-10-05T19:37:14.589Z,101615.50
2022-10-05T19:40:35.113Z,101616.97
2022-10-05T19:43:40.076Z,101621.13
2022-10-05T19:47:01.412Z,101625.78
2022-10-05T19:50:23.656Z,101630.59
2022-10-05T19:53:43.137Z,101629.66
2022-10-05T19:56:49.999Z,101631.72
2022-10-05T19:59:56.425Z,101627.44
2022-10-05T20:03:14.649Z,101626.97
2022-10-05T20:06:18.845Z,101635.50
2022-10-05T20:09:21.281Z,101640.34
2022-10-05T20:12:43.407Z,101641.84
2022-10-05T20:16:23.707Z,101640.94
2022-10-05T20:19:47.819Z,101640.34
2022-10-05T20:22:49.713Z,101645.94
2022-10-05T20:26:12.682Z,101652.03
2022-10-05T20:29:14.599Z,101658.47
2022-10-05T20:32:18.222Z,101661.22
2022-10-05T20:35:23.729Z,101656.94
2022-10-05T20:38:26.355Z,101659.31
2022-10-05T20:41:28.563Z,101653.97
2022-10-05T20:44:30.871Z,101652.38
2022-10-05T20:47:33.726Z,101658.03
2022-10-05T20:50:37.287Z,101659.59
2022-10-05T20:53:39.191Z,101662.00
2022-10-05T20:56:41.963Z,101661.31
2022-10-05T20:59:43.947Z,101660.37
2022-10-05T21:02:46.906Z,101652.75
2022-10-05T21:05:48.792Z,101652.06
2022-10-05T21:08:51.374Z,101649.53
2022-10-05T21:11:54.490Z,101660.06
2022-10-05T21:14:56.663Z,101659.72
2022-10-05T21:17:58.541Z,101657.94
2022-10-05T21:21:02.356Z,101662.47
2022-10-05T21:24:04.826Z,101657.84
2022-10-05T21:27:07.759Z,101664.50
2022-10-05T21:30:09.882Z,101663.22
2022-10-05T21:33:12.058Z,101661.59
2022-10-05T21:36:14.643Z,101655.59
2022-10-05T21:39:16.913Z,101660.13
2022-10-05T21:42:18.755Z,101657.81
2022-10-05T21:45:20.915Z,101652.44
2022-10-05T21:48:23.201Z,101654.06
2022-10-05T21:51:26.159Z,101658.59
2022-10-05T21:54:28.566Z,101662.50
2022-10-05T21:57:31.085Z,101659.44
2022-10-05T22:00:33.033Z,101655.62
2022-10-05T22:03:35.322Z,101658.84
2022-10-05T22:06:37.303Z,101656.97
2022-10-05T22:09:39.483Z,101646.81
2022-10-05T22:12:46.759Z,101649.47
2022-10-05T22:15:49.069Z,101652.75
2022-10-05T22:18:51.694Z,101648.16
2022-10-05T22:21:53.850Z,101651.38
2022-10-05T22:24:55.779Z,101649.44
2022-10-05T22:27:58.065Z,101640.13
2022-10-05T22:31:01.724Z,101645.44
2022-10-05T22:34:03.879Z,101642.25
2022-10-05T22:37:06.385Z,101638.25
2022-10-05T22:40:09.037Z,101640.28
2022-10-05T22:43:11.947Z,101644.03
2022-10-05T22:46:14.255Z,101652.94
2022-10-05T22:49:16.158Z,101636.59
2022-10-05T22:52:18.356Z,101636.06
2022-10-05T22:55:20.333Z,101639.84
2022-10-05T22:58:22.555Z,101636.34
2022-10-05T23:01:24.517Z,101639.44
2022-10-05T23:04:26.904Z,101631.81
2022-10-05T23:07:28.796Z,101619.84
2022-10-05T23:10:32.151Z,101622.41
2022-10-05T23:13:34.075Z,101610.81
2022-10-05T23:16:36.350Z,101610.75
2022-10-05T23:19:38.324Z,101608.16
2022-10-05T23:22:40.486Z,101607.97
2022-10-05T23:25:42.420Z,101607.69
2022-10-05T23:28:46.582Z,101609.06
2022-10-05T23:31:48.547Z,101603.00
2022-10-05T23:34:50.743Z,101606.75
2022-10-05T23:37:52.614Z,101604.72
2022-10-05T23:40:56.017Z,101608.34
2022-10-05T23:43:57.960Z,101609.69
2022-10-05T23:47:00.188Z,101609.59
2022-10-05T23:50:02.502Z,101610.53
2022-10-05T23:53:04.986Z,101605.81
2022-10-05T23:56:06.963Z,101598.31
2022-10-05T23:59:09.174Z,101598.12
